Time;durP1;ratioP1;P1;durP2;ratioP2;P2;SDS_P1;SDS_P2;PMS_P1;PMS_P2;Temp;Humidity;BMP_temperature;BMP_pressure;BME280_temperature;BME280_humidity;BME280_pressure;Samples;Min_cycle;Max_cycle;Signal;HPM_P1;HPM_P2
2022/09/19 00:02:32;;;;;;;;;;;20.00;43.30;;;;;;8332744;28;19917;-43
2022/09/19 00:06:35;;;;;;;;;;;20.00;43.30;;;;;;8333039;28;19971;-43
2022/09/19 00:10:45;;;;;;;;;;;20.00;43.30;;;;;;8332959;28;19913;-43
2022/09/19 00:14:47;;;;;;;;;;;20.00;43.30;;;;;;8332475;28;19918;-43
2022/09/19 00:18:49;;;;;;;;;;;20.00;43.30;;;;;;8332968;28;19917;-43
2022/09/19 00:27:09;;;;;;;;;;;20.00;43.30;;;;;;8332069;28;19947;-43
2022/09/19 00:31:13;;;;;;;;;;;20.00;43.30;;;;;;8332362;28;19917;-43
2022/09/19 00:35:14;;;;;;;;;;;20.00;43.30;;;;;;8332168;28;19924;-43
2022/09/19 00:39:16;;;;;;;;;;;20.00;43.30;;;;;;8331951;28;20307;-43
2022/09/19 00:43:17;;;;;;;;;;;20.00;43.30;;;;;;8332113;28;19927;-43
2022/09/19 00:47:21;;;;;;;;;;;20.00;43.30;;;;;;8331889;28;19925;-43
2022/09/19 00:51:45;;;;;;;;;;;20.00;43.30;;;;;;8331342;28;19925;-43
2022/09/19 00:55:48;;;;;;;;;;;19.90;43.30;;;;;;8323762;28;19917;-43
2022/09/19 00:59:48;;;;;;;;;;;20.00;43.40;;;;;;8331246;28;20004;-44
2022/09/19 01:03:49;;;;;;;;;;;20.00;43.40;;;;;;8330677;28;20336;-43
2022/09/19 01:08:01;;;;;;;;;;;19.90;43.30;;;;;;8330694;28;19931;-43
2022/09/19 01:12:07;;;;;;;;;;;19.90;43.30;;;;;;8330883;28;19924;-43
2022/09/19 01:16:20;;;;;;;;;;;19.90;43.40;;;;;;8331410;28;19917;-44
2022/09/19 01:20:45;;;;;;;;;;;19.90;43.30;;;;;;8330978;28;19929;-43
2022/09/19 01:24:46;;;;;;;;;;;19.90;43.30;;;;;;8330842;28;19913;-43
2022/09/19 01:28:53;;;;;;;;;;;19.90;43.30;;;;;;8330822;28;20365;-43
2022/09/19 01:33:01;;;;;;;;;;;19.90;43.40;;;;;;8330281;28;19975;-43
2022/09/19 01:37:02;;;;;;;;;;;19.90;43.40;;;;;;8330781;28;20011;-44
2022/09/19 01:41:02;;;;;;;;;;;19.90;43.50;;;;;;8330658;28;19940;-43
2022/09/19 01:45:08;;;;;;;;;;;19.90;43.40;;;;;;8330247;28;19917;-43
2022/09/19 01:49:17;;;;;;;;;;;19.90;43.30;;;;;;8330502;28;19933;-43
2022/09/19 01:53:36;;;;;;;;;;;19.90;43.40;;;;;;8330465;28;19982;-43
2022/09/19 01:57:47;;;;;;;;;;;19.90;43.40;;;;;;8329999;28;20388;-44
2022/09/19 02:02:08;;;;;;;;;;;19.90;43.40;;;;;;8330461;28;19913;-43
2022/09/19 02:06:19;;;;;;;;;;;19.90;43.40;;;;;;8298883;28;20030;-43
2022/09/19 02:10:25;;;;;;;;;;;19.80;43.40;;;;;;8330634;28;19929;-43
2022/09/19 02:14:28;;;;;;;;;;;19.90;43.50;;;;;;8329779;28;20411;-43
2022/09/19 02:18:37;;;;;;;;;;;19.80;43.40;;;;;;8334447;28;19918;-44
2022/09/19 02:22:41;;;;;;;;;;;19.80;43.40;;;;;;8336343;28;20400;-43
2022/09/19 02:26:42;;;;;;;;;;;19.80;43.40;;;;;;8335796;28;20443;-44
2022/09/19 02:30:43;;;;;;;;;;;19.80;43.40;;;;;;8336454;28;19913;-43
2022/09/19 02:34:44;;;;;;;;;;;19.80;43.50;;;;;;8336157;28;19917;-43
2022/09/19 02:39:01;;;;;;;;;;;19.80;43.40;;;;;;8335452;28;19921;-43
2022/09/19 02:43:07;;;;;;;;;;;19.80;43.50;;;;;;8336010;28;20298;-43
2022/09/19 02:47:13;;;;;;;;;;;19.80;43.40;;;;;;8335719;28;20301;-43
2022/09/19 02:51:17;;;;;;;;;;;19.80;43.40;;;;;;8335135;28;19921;-44
2022/09/19 02:55:23;;;;;;;;;;;19.80;43.40;;;;;;8335568;28;20349;-44
2022/09/19 02:59:28;;;;;;;;;;;19.80;43.50;;;;;;8334932;28;19963;-43
2022/09/19 03:07:54;;;;;;;;;;;19.80;43.60;;;;;;8335016;28;19932;-44
2022/09/19 03:12:18;;;;;;;;;;;19.80;43.60;;;;;;8334464;28;20378;-45
2022/09/19 03:16:20;;;;;;;;;;;19.80;43.60;;;;;;8334863;28;19917;-45
2022/09/19 03:20:22;;;;;;;;;;;19.80;43.60;;;;;;8334922;28;20007;-44
2022/09/19 03:24:22;;;;;;;;;;;19.80;43.60;;;;;;8333950;28;20458;-45
2022/09/19 03:28:23;;;;;;;;;;;19.80;43.60;;;;;;8333770;28;19925;-45
2022/09/19 03:32:26;;;;;;;;;;;19.80;43.70;;;;;;8333935;28;20281;-44
2022/09/19 03:36:28;;;;;;;;;;;19.80;43.70;;;;;;8334214;28;19928;-44
2022/09/19 03:40:30;;;;;;;;;;;19.70;43.60;;;;;;8334142;28;20043;-44
2022/09/19 03:44:30;;;;;;;;;;;19.80;43.70;;;;;;8333495;28;19921;-44
2022/09/19 03:48:32;;;;;;;;;;;19.80;43.70;;;;;;8333498;28;19979;-44
2022/09/19 03:52:33;;;;;;;;;;;19.80;43.70;;;;;;8333751;28;20019;-44
2022/09/19 03:56:34;;;;;;;;;;;19.80;43.70;;;;;;8333240;28;19917;-46
2022/09/19 04:00:34;;;;;;;;;;;19.80;43.80;;;;;;8333512;28;19920;-44
2022/09/19 04:04:35;;;;;;;;;;;19.80;43.80;;;;;;8333345;28;19917;-43
2022/09/19 04:08:36;;;;;;;;;;;19.80;43.90;;;;;;8331677;28;19929;-44
2022/09/19 04:12:36;;;;;;;;;;;19.70;43.80;;;;;;8333170;28;19949;-43
2022/09/19 04:16:36;;;;;;;;;;;19.70;43.80;;;;;;8332815;28;20019;-44
2022/09/19 04:20:38;;;;;;;;;;;19.80;43.80;;;;;;8332583;28;19917;-44
2022/09/19 04:24:39;;;;;;;;;;;19.70;43.80;;;;;;8332749;28;19917;-45
2022/09/19 04:28:40;;;;;;;;;;;19.80;43.90;;;;;;8332337;28;20412;-45
2022/09/19 04:32:42;;;;;;;;;;;19.80;43.90;;;;;;8331907;28;19917;-43
2022/09/19 04:36:43;;;;;;;;;;;19.70;43.80;;;;;;8332204;28;19991;-43
2022/09/19 04:40:45;;;;;;;;;;;19.80;43.90;;;;;;8331432;28;19927;-43
2022/09/19 04:44:46;;;;;;;;;;;19.80;43.90;;;;;;8331496;28;19917;-43
2022/09/19 04:48:47;;;;;;;;;;;19.70;44.40;;;;;;8331699;28;20294;-43
2022/09/19 04:52:47;;;;;;;;;;;19.80;43.90;;;;;;8331715;28;20011;-45
2022/09/19 04:56:48;;;;;;;;;;;19.70;43.90;;;;;;8331101;28;19917;-45
2022/09/19 05:00:49;;;;;;;;;;;19.70;43.90;;;;;;8331650;28;19919;-44
2022/09/19 05:04:51;;;;;;;;;;;19.70;43.90;;;;;;8331401;28;19963;-43
2022/09/19 05:08:51;;;;;;;;;;;19.70;43.90;;;;;;8330690;28;20439;-45
2022/09/19 05:12:52;;;;;;;;;;;19.70;43.90;;;;;;8331058;28;19963;-44
2022/09/19 05:16:54;;;;;;;;;;;19.70;44.00;;;;;;8331227;28;19913;-44
2022/09/19 05:20:55;;;;;;;;;;;19.80;44.00;;;;;;8330650;28;19997;-44
2022/09/19 05:24:55;;;;;;;;;;;19.70;44.00;;;;;;8330978;28;20297;-45
2022/09/19 05:28:56;;;;;;;;;;;19.70;44.00;;;;;;8330593;28;20016;-46
2022/09/19 05:32:57;;;;;;;;;;;19.70;44.00;;;;;;8330230;28;19917;-44
2022/09/19 05:36:58;;;;;;;;;;;19.70;44.00;;;;;;8340592;28;19928;-44
2022/09/19 05:40:59;;;;;;;;;;;19.70;44.00;;;;;;8330611;28;20314;-46
2022/09/19 05:45:00;;;;;;;;;;;19.70;44.10;;;;;;8330018;28;19917;-43
2022/09/19 05:49:00;;;;;;;;;;;19.70;44.00;;;;;;8330331;28;19932;-44
2022/09/19 05:57:20;;;;;;;;;;;19.70;44.10;;;;;;8340886;28;19979;-44
2022/09/19 06:01:21;;;;;;;;;;;19.70;44.10;;;;;;8341238;28;20263;-45
2022/09/19 06:05:21;;;;;;;;;;;19.70;44.10;;;;;;8340955;28;19917;-44
2022/09/19 06:09:22;;;;;;;;;;;19.70;44.10;;;;;;8340304;28;20031;-45
2022/09/19 06:13:23;;;;;;;;;;;19.70;44.10;;;;;;8340723;28;19913;-45
2022/09/19 06:17:23;;;;;;;;;;;19.70;44.10;;;;;;8340461;28;19917;-44
2022/09/19 06:21:24;;;;;;;;;;;19.90;43.80;;;;;;8340859;28;19913;-44
2022/09/19 06:25:25;;;;;;;;;;;20.10;43.20;;;;;;8340883;28;19917;-45
2022/09/19 06:29:26;;;;;;;;;;;20.40;42.80;;;;;;8340095;28;19932;-45
2022/09/19 06:33:26;;;;;;;;;;;20.50;42.50;;;;;;8340390;28;19921;-44
2022/09/19 06:37:27;;;;;;;;;;;20.40;42.50;;;;;;8340258;28;19929;-45
2022/09/19 06:41:28;;;;;;;;;;;20.30;42.70;;;;;;8340334;28;20282;-46
2022/09/19 06:45:29;;;;;;;;;;;20.20;42.90;;;;;;8340598;28;19947;-45
2022/09/19 06:49:29;;;;;;;;;;;20.20;43.10;;;;;;8340383;28;20015;-44
2022/09/19 06:53:30;;;;;;;;;;;20.10;43.30;;;;;;8339854;28;19924;-45
2022/09/19 06:57:30;;;;;;;;;;;20.00;43.40;;;;;;8340427;28;20043;-45
2022/09/19 07:01:32;;;;;;;;;;;20.00;43.50;;;;;;8340354;28;20341;-44
2022/09/19 07:05:34;;;;;;;;;;;19.90;43.70;;;;;;8334253;28;19928;-44
2022/09/19 07:09:34;;;;;;;;;;;19.90;43.70;;;;;;8334181;28;19967;-44
2022/09/19 07:13:34;;;;;;;;;;;19.90;43.70;;;;;;8334942;28;19917;-45
2022/09/19 07:17:35;;;;;;;;;;;19.90;43.70;;;;;;8334227;28;19913;-45
2022/09/19 07:21:35;;;;;;;;;;;19.80;43.70;;;;;;8334749;28;19913;-44
2022/09/19 07:25:37;;;;;;;;;;;19.80;43.70;;;;;;8334426;28;20023;-44
2022/09/19 07:29:38;;;;;;;;;;;19.80;43.70;;;;;;8333774;28;19932;-45
2022/09/19 07:33:38;;;;;;;;;;;19.90;43.80;;;;;;8334492;28;20003;-45
2022/09/19 07:37:39;;;;;;;;;;;19.90;43.80;;;;;;8333950;28;19928;-44
2022/09/19 07:41:40;;;;;;;;;;;19.80;43.70;;;;;;8333955;28;19923;-45
2022/09/19 07:45:44;;;;;;;;;;;19.90;43.70;;;;;;8334135;28;19992;-44
2022/09/19 07:49:45;;;;;;;;;;;19.80;43.70;;;;;;8333578;28;19921;-45
2022/09/19 07:53:46;;;;;;;;;;;19.80;43.80;;;;;;8333198;28;19999;-45
2022/09/19 07:57:55;;;;;;;;;;;19.80;43.80;;;;;;8333426;28;19913;-46
2022/09/19 08:01:55;;;;;;;;;;;19.80;43.80;;;;;;8333607;28;19921;-46
2022/09/19 08:05:58;;;;;;;;;;;19.80;43.80;;;;;;8332670;28;20374;-44
2022/09/19 08:10:02;;;;;;;;;;;19.80;43.90;;;;;;8333233;28;20013;-45
2022/09/19 08:14:03;;;;;;;;;;;19.80;43.80;;;;;;8333116;28;19980;-44
2022/09/19 08:18:05;;;;;;;;;;;19.80;43.90;;;;;;8332356;28;19917;-47
2022/09/19 08:22:05;;;;;;;;;;;19.80;43.80;;;;;;8332807;28;19918;-46
2022/09/19 08:26:06;;;;;;;;;;;19.80;43.80;;;;;;8332724;28;19921;-45
2022/09/19 08:30:06;;;;;;;;;;;19.80;43.80;;;;;;8331802;28;20149;-43
2022/09/19 08:34:08;;;;;;;;;;;19.80;43.80;;;;;;8332212;28;20290;-45
2022/09/19 08:38:10;;;;;;;;;;;19.80;43.80;;;;;;8332064;28;19921;-44
2022/09/19 08:42:21;;;;;;;;;;;19.90;43.80;;;;;;8331789;28;19924;-44
2022/09/19 08:46:22;;;;;;;;;;;19.90;43.70;;;;;;8331970;28;19924;-44
2022/09/19 08:50:27;;;;;;;;;;;19.90;43.70;;;;;;8331764;28;19922;-42
2022/09/19 08:54:32;;;;;;;;;;;19.90;43.70;;;;;;8331439;28;20267;-43
2022/09/19 08:58:34;;;;;;;;;;;19.90;44.20;;;;;;8331622;28;20444;-44
2022/09/19 09:02:47;;;;;;;;;;;19.90;43.70;;;;;;8331221;28;19918;-43
2022/09/19 09:07:06;;;;;;;;;;;19.90;43.70;;;;;;8331256;28;19921;-44
2022/09/19 09:11:07;;;;;;;;;;;20.00;43.70;;;;;;8331450;28;20293;-43
2022/09/19 09:15:20;;;;;;;;;;;20.00;43.70;;;;;;8330643;28;20378;-43
2022/09/19 09:19:21;;;;;;;;;;;20.00;43.70;;;;;;8330894;28;19967;-44
2022/09/19 09:23:31;;;;;;;;;;;20.00;43.70;;;;;;8330975;28;20283;-45
2022/09/19 09:27:36;;;;;;;;;;;20.00;43.70;;;;;;8330442;28;19925;-44
2022/09/19 09:31:41;;;;;;;;;;;20.00;43.70;;;;;;8330706;28;20394;-45
2022/09/19 09:35:44;;;;;;;;;;;20.00;43.70;;;;;;8330166;28;19927;-46
2022/09/19 09:39:59;;;;;;;;;;;20.00;43.60;;;;;;8330799;28;19918;-44
2022/09/19 09:44:08;;;;;;;;;;;20.00;43.60;;;;;;8330525;28;19917;-45
2022/09/19 09:48:14;;;;;;;;;;;20.10;43.60;;;;;;8330149;28;19921;-45
2022/09/19 09:52:15;;;;;;;;;;;20.10;43.50;;;;;;8330471;28;20395;-43
2022/09/19 09:56:27;;;;;;;;;;;20.10;43.70;;;;;;8330294;28;19924;-45
2022/09/19 10:04:50;;;;;;;;;;;20.10;43.40;;;;;;8329490;28;20011;-42
2022/09/19 10:09:10;;;;;;;;;;;20.20;43.40;;;;;;8329571;28;19933;-44
2022/09/19 10:13:10;;;;;;;;;;;20.20;43.40;;;;;;8330325;28;19988;-44
2022/09/19 10:17:11;;;;;;;;;;;20.20;43.30;;;;;;8330055;28;19924;-43
2022/09/19 10:21:13;;;;;;;;;;;20.20;43.40;;;;;;8329513;28;19917;-44
2022/09/19 10:25:14;;;;;;;;;;;20.20;43.80;;;;;;8329833;28;20267;-44
2022/09/19 10:29:20;;;;;;;;;;;20.20;43.30;;;;;;8329873;28;19925;-45
2022/09/19 10:33:40;;;;;;;;;;;20.30;43.30;;;;;;8329464;28;19913;-43
2022/09/19 10:37:41;;;;;;;;;;;20.30;43.30;;;;;;8329877;28;20393;-43
2022/09/19 10:41:42;;;;;;;;;;;20.30;43.20;;;;;;8335240;28;19913;-43
2022/09/19 10:45:45;;;;;;;;;;;20.30;43.20;;;;;;8335855;28;19921;-43
2022/09/19 10:49:47;;;;;;;;;;;20.30;43.20;;;;;;8335464;28;19921;-44
2022/09/19 10:53:52;;;;;;;;;;;20.40;43.20;;;;;;8335287;28;19924;-45
2022/09/19 10:57:58;;;;;;;;;;;20.40;43.20;;;;;;8335842;28;19928;-46
2022/09/19 11:02:17;;;;;;;;;;;20.40;43.20;;;;;;8335311;28;19917;-45
2022/09/19 11:06:18;;;;;;;;;;;20.40;43.10;;;;;;8334757;28;19958;-45
2022/09/19 11:10:51;;;;;;;;;;;20.40;43.20;;;;;;8334774;28;19921;-45
2022/09/19 11:14:55;;;;;;;;;;;20.50;43.20;;;;;;8301315;28;19953;-44
2022/09/19 11:19:05;;;;;;;;;;;20.50;43.10;;;;;;8335039;28;20008;-45
2022/09/19 11:23:18;;;;;;;;;;;20.50;43.10;;;;;;8334769;28;19917;-44
2022/09/19 11:27:24;;;;;;;;;;;20.50;43.20;;;;;;8333945;28;19925;-44
2022/09/19 11:31:36;;;;;;;;;;;20.60;43.20;;;;;;8334302;28;20435;-43
2022/09/19 11:35:42;;;;;;;;;;;20.50;43.10;;;;;;8333812;28;19921;-45
2022/09/19 11:39:52;;;;;;;;;;;20.60;43.10;;;;;;8334069;28;19917;-49
2022/09/19 11:44:04;;;;;;;;;;;20.50;43.00;;;;;;8333370;28;21212;-45
2022/09/19 11:48:21;;;;;;;;;;;20.60;43.10;;;;;;8333330;28;19932;-44
2022/09/19 11:52:25;;;;;;;;;;;20.60;43.00;;;;;;8333096;28;19931;-46
2022/09/19 11:56:26;;;;;;;;;;;20.60;43.00;;;;;;8333275;28;19913;-44
2022/09/19 12:00:26;;;;;;;;;;;20.60;43.00;;;;;;8333613;28;20265;-45
2022/09/19 12:04:32;;;;;;;;;;;20.60;43.00;;;;;;8333037;28;19913;-46
2022/09/19 12:08:32;;;;;;;;;;;20.70;43.00;;;;;;8332687;28;19929;-44
2022/09/19 12:12:36;;;;;;;;;;;20.70;43.00;;;;;;8333000;28;19917;-44
2022/09/19 12:16:52;;;;;;;;;;;20.70;43.00;;;;;;8332617;28;19984;-46
2022/09/19 12:20:54;;;;;;;;;;;20.70;42.90;;;;;;8332253;28;19945;-45
2022/09/19 12:25:01;;;;;;;;;;;20.70;42.90;;;;;;8332573;28;19913;-45
2022/09/19 12:29:34;;;;;;;;;;;20.70;42.90;;;;;;8332652;28;20108;-45
2022/09/19 12:33:55;;;;;;;;;;;20.80;43.00;;;;;;8299048;28;20371;-45
2022/09/19 12:38:18;;;;;;;;;;;20.70;42.90;;;;;;8331599;28;20023;-45
2022/09/19 12:42:24;;;;;;;;;;;20.80;42.90;;;;;;8323440;28;19944;-46
2022/09/19 12:46:37;;;;;;;;;;;20.80;42.90;;;;;;8332138;28;19914;-45
2022/09/19 12:50:58;;;;;;;;;;;20.80;42.90;;;;;;8331237;28;19931;-47
2022/09/19 12:55:17;;;;;;;;;;;20.80;42.90;;;;;;8331343;28;19921;-46
2022/09/19 12:59:19;;;;;;;;;;;20.80;42.90;;;;;;8331799;28;19928;-47
2022/09/19 13:03:20;;;;;;;;;;;20.80;42.80;;;;;;8330038;28;19943;-44
2022/09/19 13:07:33;;;;;;;;;;;20.80;42.90;;;;;;8331183;28;19925;-46
2022/09/19 13:11:39;;;;;;;;;;;20.90;42.90;;;;;;8329386;28;19917;-45
2022/09/19 13:15:46;;;;;;;;;;;20.90;42.90;;;;;;8331264;28;20358;-45
2022/09/19 13:24:08;;;;;;;;;;;20.80;42.90;;;;;;8330614;28;19924;-45
2022/09/19 13:28:19;;;;;;;;;;;20.90;43.00;;;;;;8330865;28;20148;-45
2022/09/19 13:32:53;;;;;;;;;;;20.90;42.90;;;;;;8331252;28;20007;-45
2022/09/19 13:36:53;;;;;;;;;;;20.90;42.90;;;;;;8330960;28;20247;-44
2022/09/19 13:40:56;;;;;;;;;;;20.90;42.90;;;;;;8330632;28;19996;-45
2022/09/19 13:45:01;;;;;;;;;;;20.90;43.00;;;;;;8330195;28;19913;-43
2022/09/19 13:49:11;;;;;;;;;;;20.90;42.90;;;;;;8330457;28;19932;-46
2022/09/19 13:53:35;;;;;;;;;;;20.90;42.80;;;;;;8330417;28;20012;-44
2022/09/19 13:57:39;;;;;;;;;;;20.90;42.90;;;;;;8329806;28;19968;-44
2022/09/19 14:01:41;;;;;;;;;;;20.90;42.90;;;;;;8330271;28;19925;-44
2022/09/19 14:05:41;;;;;;;;;;;20.90;42.90;;;;;;8329683;28;19917;-45
2022/09/19 14:09:43;;;;;;;;;;;20.90;43.30;;;;;;8330675;28;19960;-47
2022/09/19 14:13:44;;;;;;;;;;;20.90;42.90;;;;;;8333364;28;19928;-45
2022/09/19 14:18:00;;;;;;;;;;;20.90;43.30;;;;;;8336109;28;19917;-43
2022/09/19 14:22:02;;;;;;;;;;;20.90;42.80;;;;;;8336468;28;19917;-45
2022/09/19 14:26:29;;;;;;;;;;;20.90;42.80;;;;;;8336252;28;19918;-45
2022/09/19 14:30:40;;;;;;;;;;;20.90;42.80;;;;;;8335879;28;20398;-46
2022/09/19 14:34:40;;;;;;;;;;;20.90;42.70;;;;;;8336483;28;19920;-46
2022/09/19 14:38:41;;;;;;;;;;;20.90;42.60;;;;;;8335649;28;20334;-45
2022/09/19 14:42:54;;;;;;;;;;;20.90;42.70;;;;;;8335926;28;19921;-45
2022/09/19 14:46:58;;;;;;;;;;;20.90;42.70;;;;;;8335683;28;20004;-45
2022/09/19 14:51:03;;;;;;;;;;;20.90;42.70;;;;;;8335203;28;20014;-45
2022/09/19 14:55:09;;;;;;;;;;;20.90;42.70;;;;;;8335515;28;19913;-45
2022/09/19 14:59:17;;;;;;;;;;;21.00;42.60;;;;;;8335111;28;20011;-46
2022/09/19 15:03:20;;;;;;;;;;;21.00;42.60;;;;;;8334361;28;19918;-44
2022/09/19 15:07:31;;;;;;;;;;;20.90;42.60;;;;;;8334751;28;19925;-48
2022/09/19 15:11:32;;;;;;;;;;;20.90;42.60;;;;;;8334528;28;20382;-44
2022/09/19 15:15:33;;;;;;;;;;;21.00;43.10;;;;;;8334985;28;19917;-45
2022/09/19 15:19:34;;;;;;;;;;;21.00;42.50;;;;;;8334712;28;19917;-44
2022/09/19 15:23:36;;;;;;;;;;;20.90;42.50;;;;;;8333602;28;19913;-44
2022/09/19 15:27:45;;;;;;;;;;;20.90;42.60;;;;;;8334267;28;20413;-43
2022/09/19 15:31:48;;;;;;;;;;;20.90;42.60;;;;;;8334424;28;19960;-44
2022/09/19 15:35:50;;;;;;;;;;;20.90;42.60;;;;;;8333577;28;19922;-45
2022/09/19 15:39:51;;;;;;;;;;;20.90;42.60;;;;;;8334141;28;20342;-44
2022/09/19 15:43:54;;;;;;;;;;;20.90;42.50;;;;;;8333900;28;19971;-44
2022/09/19 15:48:02;;;;;;;;;;;20.90;42.70;;;;;;8333094;28;19925;-44
2022/09/19 15:52:08;;;;;;;;;;;20.80;42.60;;;;;;8333475;28;19920;-44
2022/09/19 15:56:09;;;;;;;;;;;20.80;42.70;;;;;;8333457;28;19921;-44
2022/09/19 16:00:20;;;;;;;;;;;20.80;42.70;;;;;;8332954;28;19921;-42
2022/09/19 16:04:21;;;;;;;;;;;20.90;42.70;;;;;;8311558;28;19918;-45
2022/09/19 16:12:44;;;;;;;;;;;20.80;42.60;;;;;;8332512;28;20477;-45
2022/09/19 16:16:50;;;;;;;;;;;20.80;42.70;;;;;;8332975;28;20000;-45
2022/09/19 16:20:59;;;;;;;;;;;20.80;42.70;;;;;;8332978;28;20004;-46
2022/09/19 16:25:02;;;;;;;;;;;20.80;42.70;;;;;;8332529;28;19917;-45
2022/09/19 16:29:03;;;;;;;;;;;20.80;42.70;;;;;;8332302;28;19971;-45
2022/09/19 16:33:10;;;;;;;;;;;20.80;42.70;;;;;;8331851;28;20329;-47
2022/09/19 16:37:33;;;;;;;;;;;20.80;42.70;;;;;;8332173;28;19925;-45
2022/09/19 16:41:34;;;;;;;;;;;20.80;42.80;;;;;;8331323;28;19917;-44
2022/09/19 16:45:36;;;;;;;;;;;20.80;42.80;;;;;;8332428;28;20321;-46
2022/09/19 16:49:37;;;;;;;;;;;20.80;42.80;;;;;;8331765;28;20436;-46
2022/09/19 16:53:37;;;;;;;;;;;20.80;42.80;;;;;;8331137;28;19917;-44
2022/09/19 16:57:37;;;;;;;;;;;20.80;42.80;;;;;;8331843;28;20430;-44
2022/09/19 17:01:38;;;;;;;;;;;20.80;42.80;;;;;;8331380;28;19921;-47
2022/09/19 17:05:39;;;;;;;;;;;20.80;42.90;;;;;;8331151;28;19913;-43
2022/09/19 17:09:39;;;;;;;;;;;20.80;42.90;;;;;;8330880;28;19925;-44
2022/09/19 17:13:40;;;;;;;;;;;20.80;42.80;;;;;;8331029;28;20012;-45
2022/09/19 17:17:40;;;;;;;;;;;20.70;42.80;;;;;;8330630;28;20366;-45
2022/09/19 17:21:41;;;;;;;;;;;20.70;42.90;;;;;;8330995;28;20386;-44
2022/09/19 17:25:42;;;;;;;;;;;20.70;42.90;;;;;;8331222;28;20000;-44
2022/09/19 17:29:43;;;;;;;;;;;20.70;42.90;;;;;;8330532;28;20325;-44
2022/09/19 17:33:43;;;;;;;;;;;20.70;42.90;;;;;;8330817;28;20004;-44
2022/09/19 17:37:44;;;;;;;;;;;20.70;42.90;;;;;;8330939;28;19921;-44
2022/09/19 17:41:45;;;;;;;;;;;20.70;42.90;;;;;;8330323;28;19929;-43
2022/09/19 17:45:47;;;;;;;;;;;20.70;42.90;;;;;;8330785;28;19924;-44
2022/09/19 17:49:47;;;;;;;;;;;20.70;43.00;;;;;;8330047;28;19925;-45
2022/09/19 17:53:48;;;;;;;;;;;20.70;43.00;;;;;;8329870;28;19918;-45
2022/09/19 17:57:48;;;;;;;;;;;20.70;43.00;;;;;;8329889;28;19913;-44
2022/09/19 18:06:08;;;;;;;;;;;20.70;43.00;;;;;;8330543;28;19990;-44
2022/09/19 18:10:08;;;;;;;;;;;20.70;43.00;;;;;;8329795;28;19929;-44
2022/09/19 18:14:09;;;;;;;;;;;20.60;42.90;;;;;;8329782;28;20342;-45
2022/09/19 18:18:09;;;;;;;;;;;20.60;42.90;;;;;;8329230;28;19924;-45
2022/09/19 18:22:10;;;;;;;;;;;20.60;42.90;;;;;;8329820;28;19991;-44
2022/09/19 18:26:18;;;;;;;;;;;20.70;43.00;;;;;;8330141;28;20381;-45
2022/09/19 18:30:19;;;;;;;;;;;20.60;42.90;;;;;;8329127;28;19951;-44
2022/09/19 18:34:21;;;;;;;;;;;20.60;42.90;;;;;;8329530;28;19917;-45
2022/09/19 18:38:21;;;;;;;;;;;20.60;42.90;;;;;;8329492;28;19928;-44
2022/09/19 18:42:22;;;;;;;;;;;20.60;42.80;;;;;;8328872;28;20009;-44
2022/09/19 18:46:23;;;;;;;;;;;20.60;42.90;;;;;;8329910;28;19913;-44
2022/09/19 18:50:24;;;;;;;;;;;20.60;42.90;;;;;;8329045;28;19948;-46
2022/09/19 18:54:25;;;;;;;;;;;20.60;42.90;;;;;;8328908;28;19959;-44
2022/09/19 18:58:25;;;;;;;;;;;20.60;42.90;;;;;;8329085;28;20012;-45
2022/09/19 19:02:27;;;;;;;;;;;20.60;42.90;;;;;;8334076;28;19925;-46
2022/09/19 19:06:27;;;;;;;;;;;20.60;42.90;;;;;;8324111;28;19920;-45
2022/09/19 19:10:32;;;;;;;;;;;20.60;42.90;;;;;;8329551;28;19933;-43
2022/09/19 19:14:32;;;;;;;;;;;20.60;42.90;;;;;;8334469;28;19924;-45
2022/09/19 19:18:33;;;;;;;;;;;20.50;42.90;;;;;;8334680;28;20439;-45
2022/09/19 19:22:34;;;;;;;;;;;20.60;42.90;;;;;;8334442;28;20344;-46
2022/09/19 19:26:36;;;;;;;;;;;20.60;42.90;;;;;;8334108;28;20278;-45
2022/09/19 19:30:36;;;;;;;;;;;20.60;42.90;;;;;;8334542;28;19925;-45
2022/09/19 19:34:37;;;;;;;;;;;20.60;42.90;;;;;;8334497;28;19944;-44
2022/09/19 19:38:39;;;;;;;;;;;20.60;42.90;;;;;;8333675;28;19927;-46
2022/09/19 19:42:40;;;;;;;;;;;20.60;42.90;;;;;;8334022;28;19913;-44
2022/09/19 19:46:40;;;;;;;;;;;20.60;42.90;;;;;;8334301;28;20000;-43
2022/09/19 19:50:41;;;;;;;;;;;20.60;42.90;;;;;;8333406;28;19925;-43
2022/09/19 19:54:41;;;;;;;;;;;20.60;43.40;;;;;;8333719;28;20382;-44
2022/09/19 19:58:42;;;;;;;;;;;20.50;42.80;;;;;;8333783;28;20401;-43
2022/09/19 20:02:42;;;;;;;;;;;20.60;42.90;;;;;;8333159;28;20378;-43
2022/09/19 20:06:45;;;;;;;;;;;20.60;42.90;;;;;;8333678;28;19939;-42
2022/09/19 20:10:52;;;;;;;;;;;20.50;42.90;;;;;;8332677;28;20016;-44
2022/09/19 20:14:53;;;;;;;;;;;20.50;42.90;;;;;;8332707;28;19924;-44
2022/09/19 20:18:53;;;;;;;;;;;20.50;42.90;;;;;;8332972;28;19918;-43
2022/09/19 20:22:55;;;;;;;;;;;20.50;42.90;;;;;;8333034;28;19917;-44
2022/09/19 20:26:55;;;;;;;;;;;20.50;42.90;;;;;;8332609;28;19935;-43
2022/09/19 20:30:59;;;;;;;;;;;20.50;42.90;;;;;;8332511;28;19929;-43
2022/09/19 20:34:59;;;;;;;;;;;20.50;42.90;;;;;;8332491;28;19917;-43
2022/09/19 20:39:00;;;;;;;;;;;20.50;42.90;;;;;;8331957;28;20362;-45
2022/09/19 20:43:00;;;;;;;;;;;20.50;42.90;;;;;;8332541;28;19921;-42
2022/09/19 20:47:01;;;;;;;;;;;20.50;42.90;;;;;;8332655;28;20000;-45
2022/09/19 20:51:03;;;;;;;;;;;20.50;42.90;;;;;;8331423;28;19978;-44
2022/09/19 20:55:04;;;;;;;;;;;20.50;42.90;;;;;;8332042;28;19932;-43
2022/09/19 20:59:07;;;;;;;;;;;20.50;42.90;;;;;;8331807;28;20313;-44
2022/09/19 21:03:07;;;;;;;;;;;20.40;42.90;;;;;;8331169;28;19943;-44
2022/09/19 21:07:08;;;;;;;;;;;20.40;42.90;;;;;;8331598;28;19917;-46
2022/09/19 21:11:12;;;;;;;;;;;20.40;42.90;;;;;;8331505;28;19967;-43
2022/09/19 21:15:12;;;;;;;;;;;20.40;42.90;;;;;;8330866;28;20425;-44
2022/09/19 21:19:13;;;;;;;;;;;20.40;42.90;;;;;;8331141;28;19936;-43
2022/09/19 21:23:14;;;;;;;;;;;20.40;42.90;;;;;;8330315;28;19920;-44
2022/09/19 21:27:15;;;;;;;;;;;20.40;42.90;;;;;;8330716;28;19917;-46
2022/09/19 21:31:17;;;;;;;;;;;20.40;42.90;;;;;;8331184;28;19921;-44
2022/09/19 21:35:17;;;;;;;;;;;20.40;42.90;;;;;;8330698;28;19966;-43
2022/09/19 21:39:17;;;;;;;;;;;20.40;42.80;;;;;;8330260;28;20406;-43
2022/09/19 21:43:18;;;;;;;;;;;20.30;43.40;;;;;;8330684;28;20008;-46
2022/09/19 21:47:18;;;;;;;;;;;20.40;42.90;;;;;;8330793;28;19975;-43
2022/09/19 21:51:20;;;;;;;;;;;20.40;42.80;;;;;;8330010;28;20301;-42
2022/09/19 21:55:20;;;;;;;;;;;20.40;42.90;;;;;;8330461;28;19932;-44
2022/09/19 21:59:21;;;;;;;;;;;20.30;42.90;;;;;;8330367;28;20016;-44
2022/09/19 22:03:22;;;;;;;;;;;20.30;42.80;;;;;;8328800;28;20371;-45
2022/09/19 22:07:22;;;;;;;;;;;20.30;42.80;;;;;;8330388;28;19996;-45
2022/09/19 22:11:24;;;;;;;;;;;20.30;42.80;;;;;;8325066;28;19922;-43
2022/09/19 22:15:24;;;;;;;;;;;20.30;42.90;;;;;;8328528;28;19917;-44
2022/09/19 22:19:25;;;;;;;;;;;20.30;42.90;;;;;;8329974;28;19924;-43
2022/09/19 22:23:26;;;;;;;;;;;20.30;42.80;;;;;;8329635;28;19957;-43
2022/09/19 22:27:27;;;;;;;;;;;20.30;42.80;;;;;;8330173;28;20511;-45
2022/09/19 22:31:29;;;;;;;;;;;20.30;42.90;;;;;;8330059;28;19917;-45
2022/09/19 22:35:30;;;;;;;;;;;20.30;42.80;;;;;;8333696;28;19987;-45
2022/09/19 22:39:31;;;;;;;;;;;20.30;42.90;;;;;;8336272;28;19924;-45
2022/09/19 22:43:32;;;;;;;;;;;20.20;42.80;;;;;;8336392;28;19940;-44
2022/09/19 22:47:32;;;;;;;;;;;20.30;42.90;;;;;;8335291;28;19928;-45
2022/09/19 22:51:33;;;;;;;;;;;20.30;42.90;;;;;;8335716;28;19921;-44
2022/09/19 22:55:33;;;;;;;;;;;20.20;42.80;;;;;;8335534;28;19923;-43
2022/09/19 22:59:34;;;;;;;;;;;20.20;42.80;;;;;;8335057;28;19917;-43
2022/09/19 23:03:35;;;;;;;;;;;20.30;42.90;;;;;;8335550;28;19913;-44
2022/09/19 23:07:35;;;;;;;;;;;20.30;42.80;;;;;;8335085;28;20397;-44
2022/09/19 23:11:36;;;;;;;;;;;20.20;42.90;;;;;;8334556;28;20282;-44
2022/09/19 23:15:36;;;;;;;;;;;20.20;42.90;;;;;;8335035;28;19917;-42
2022/09/19 23:19:37;;;;;;;;;;;20.20;42.90;;;;;;8334995;28;19924;-44
2022/09/19 23:23:37;;;;;;;;;;;20.20;42.90;;;;;;8334450;28;19971;-44
2022/09/19 23:27:38;;;;;;;;;;;20.20;42.90;;;;;;8334476;28;20358;-43
2022/09/19 23:31:38;;;;;;;;;;;20.20;42.90;;;;;;8334757;28;20236;-43
2022/09/19 23:35:39;;;;;;;;;;;20.20;42.90;;;;;;8334095;28;19925;-42
2022/09/19 23:39:39;;;;;;;;;;;20.10;42.80;;;;;;8334064;28;19923;-42
2022/09/19 23:43:40;;;;;;;;;;;20.20;42.90;;;;;;8334365;28;19913;-45
2022/09/19 23:47:40;;;;;;;;;;;20.10;42.90;;;;;;8333094;28;19982;-42
2022/09/19 23:51:41;;;;;;;;;;;20.10;42.90;;;;;;8333867;28;19917;-42
2022/09/19 23:55:45;;;;;;;;;;;20.10;42.90;;;;;;8333924;28;19917;-45
2022/09/19 23:59:46;;;;;;;;;;;20.10;42.90;;;;;;8333417;28;19929;-44
